createdAt,value
2018-12-29T00:02:24.240Z,-0.90
2018-12-29T00:04:53.786Z,-1.00
2018-12-29T00:07:23.407Z,-1.00
2018-12-29T00:09:52.976Z,-1.00
2018-12-29T00:12:41.683Z,-0.90
2018-12-29T00:18:31.559Z,-1.00
2018-12-29T00:21:12.888Z,-1.10
2018-12-29T00:23:53.596Z,-1.10
2018-12-29T00:26:35.185Z,-1.20
2018-12-29T00:29:04.892Z,-1.00
2018-12-29T00:31:34.476Z,-1.10
2018-12-29T00:42:54.516Z,-1.20
2018-12-29T00:45:24.083Z,-1.30
2018-12-29T00:47:53.628Z,-1.30
2018-12-29T00:56:14.559Z,-1.40
2018-12-29T00:58:44.140Z,-1.50
2018-12-29T01:01:13.741Z,-1.40
2018-12-29T01:03:43.815Z,-1.50
2018-12-29T01:06:13.384Z,-1.40
2018-12-29T01:11:42.749Z,-1.40
2018-12-29T01:14:12.317Z,-1.50
2018-12-29T01:16:41.867Z,-1.60
2018-12-29T01:19:11.479Z,-1.60
2018-12-29T01:21:41.023Z,-1.70
2018-12-29T01:24:10.596Z,-1.70
2018-12-29T01:26:40.188Z,-1.70
2018-12-29T01:29:09.741Z,-1.60
2018-12-29T01:31:39.335Z,-1.80
2018-12-29T01:34:20.842Z,-1.80
2018-12-29T01:37:01.587Z,-1.80
2018-12-29T01:39:31.219Z,-1.80
2018-12-29T01:42:00.775Z,-1.90
2018-12-29T01:44:30.334Z,-1.80
2018-12-29T01:46:59.946Z,-1.80
2018-12-29T01:52:50.276Z,-1.90
2018-12-29T01:55:31.976Z,-1.90
2018-12-29T01:58:13.053Z,-1.90
2018-12-29T02:00:54.378Z,-1.80
2018-12-29T02:03:36.023Z,-1.70
2018-12-29T02:06:19.997Z,-1.70
2018-12-29T02:09:01.275Z,-1.70
2018-12-29T02:11:42.788Z,-1.70
2018-12-29T02:14:23.731Z,-1.70
2018-12-29T02:17:04.528Z,-1.80
2018-12-29T02:19:45.429Z,-1.80
2018-12-29T02:22:27.060Z,-1.70
2018-12-29T02:24:56.652Z,-1.60
2018-12-29T02:27:26.207Z,-1.60
2018-12-29T02:29:55.750Z,-1.50
2018-12-29T02:32:25.336Z,-1.50
2018-12-29T02:34:54.889Z,-1.60
2018-12-29T02:37:24.437Z,-1.50
2018-12-29T02:39:54.017Z,-1.40
2018-12-29T02:42:23.566Z,-1.40
2018-12-29T02:44:53.123Z,-1.40
2018-12-29T02:47:22.696Z,-1.30
2018-12-29T02:50:03.456Z,-1.20
2018-12-29T02:52:44.395Z,-1.30
2018-12-29T02:55:14.034Z,-1.20
2018-12-29T02:57:43.593Z,-1.30
2018-12-29T03:00:13.279Z,-1.20
2018-12-29T03:02:42.892Z,-1.20
2018-12-29T03:05:12.456Z,-1.10
2018-12-29T03:07:42.011Z,-1.10
2018-12-29T03:10:11.616Z,-1.10
2018-12-29T03:12:41.167Z,-1.20
2018-12-29T03:15:10.749Z,-1.20
2018-12-29T03:17:40.415Z,-1.20
2018-12-29T03:20:10.005Z,-1.10
2018-12-29T03:22:39.592Z,-1.10
2018-12-29T03:25:09.295Z,-1.10
2018-12-29T03:27:38.856Z,-1.10
2018-12-29T03:30:08.430Z,-1.10
2018-12-29T03:32:38.059Z,-1.10
2018-12-29T03:35:26.624Z,-1.10
2018-12-29T03:38:08.136Z,-1.20
2018-12-29T03:40:48.889Z,-1.20
2018-12-29T03:43:18.414Z,-1.20
2018-12-29T03:45:49.349Z,-1.20
2018-12-29T03:48:19.068Z,-1.30
2018-12-29T03:50:48.689Z,-1.30
2018-12-29T03:53:18.243Z,-1.20
2018-12-29T03:55:47.813Z,-1.20
2018-12-29T03:58:17.403Z,-1.20
2018-12-29T04:00:46.953Z,-1.20
2018-12-29T04:03:16.578Z,-1.20
2018-12-29T04:05:46.117Z,-1.20
2018-12-29T04:08:15.646Z,-1.20
2018-12-29T04:10:45.275Z,-1.10
2018-12-29T04:13:14.780Z,-1.20
2018-12-29T04:15:44.327Z,-1.10
2018-12-29T04:18:13.898Z,-1.10
2018-12-29T04:23:52.688Z,-0.90
2018-12-29T04:26:22.242Z,-1.00
2018-12-29T04:29:03.503Z,-1.00
2018-12-29T04:31:33.083Z,-0.90
2018-12-29T04:40:05.169Z,-0.70
2018-12-29T04:42:34.706Z,-0.80
2018-12-29T04:45:04.257Z,-0.70
2018-12-29T04:47:33.841Z,-0.80
2018-12-29T04:50:03.411Z,-0.70
2018-12-29T04:52:32.953Z,-0.60
2018-12-29T04:55:02.537Z,-0.60
2018-12-29T04:57:32.116Z,-0.50
2018-12-29T05:00:01.645Z,-0.50
2018-12-29T05:02:31.259Z,-0.60
2018-12-29T05:05:00.847Z,-0.50
2018-12-29T05:07:30.380Z,-0.50
2018-12-29T05:10:00.051Z,-0.40
2018-12-29T05:12:29.635Z,-0.50
2018-12-29T05:14:59.202Z,-0.40
2018-12-29T05:17:28.806Z,-0.40
2018-12-29T05:19:58.380Z,-0.30
2018-12-29T05:22:27.929Z,-0.30
2018-12-29T05:24:58.370Z,-0.30
2018-12-29T05:27:39.874Z,-0.30
2018-12-29T05:30:20.693Z,-0.30
2018-12-29T05:33:01.596Z,-0.30
2018-12-29T05:35:31.174Z,-0.10
2018-12-29T05:38:00.840Z,-0.20
2018-12-29T05:40:30.364Z,-0.20
2018-12-29T05:42:59.924Z,-0.10
2018-12-29T05:45:29.492Z,-0.10
2018-12-29T05:47:59.024Z,0.00
2018-12-29T05:50:28.581Z,0.10
2018-12-29T05:52:58.192Z,0.00
2018-12-29T05:55:27.734Z,0.00
2018-12-29T05:57:57.274Z,0.00
2018-12-29T06:00:26.882Z,0.00
2018-12-29T06:02:56.388Z,0.00
2018-12-29T06:05:25.938Z,0.10
2018-12-29T06:07:55.503Z,0.00
2018-12-29T06:10:25.054Z,0.00
2018-12-29T06:13:13.780Z,0.10
2018-12-29T06:19:03.649Z,0.20
2018-12-29T06:21:45.254Z,0.20
2018-12-29T06:24:26.714Z,0.10
2018-12-29T06:27:08.323Z,0.10
2018-12-29T06:29:50.010Z,0.20
2018-12-29T06:32:19.605Z,0.20
2018-12-29T06:34:49.136Z,0.20
2018-12-29T06:37:18.739Z,0.20
2018-12-29T06:43:09.433Z,0.20
2018-12-29T06:45:51.084Z,0.20
2018-12-29T06:48:32.668Z,0.20
2018-12-29T06:51:14.293Z,0.20
2018-12-29T06:53:43.876Z,0.20
2018-12-29T06:56:13.468Z,0.30
2018-12-29T06:58:42.976Z,0.30
2018-12-29T07:01:12.598Z,0.30
2018-12-29T07:07:03.322Z,0.40
2018-12-29T07:09:44.845Z,0.40
2018-12-29T07:12:25.547Z,0.30
2018-12-29T07:15:06.815Z,0.30
2018-12-29T07:17:48.524Z,0.30
2018-12-29T07:20:18.098Z,0.40
2018-12-29T07:22:47.696Z,0.30
2018-12-29T07:25:17.306Z,0.40
2018-12-29T07:27:46.828Z,0.40
2018-12-29T07:30:16.392Z,0.50
2018-12-29T07:32:45.988Z,0.60
2018-12-29T07:35:16.868Z,0.50
2018-12-29T07:37:46.413Z,0.50
2018-12-29T07:40:15.999Z,0.40
2018-12-29T07:42:45.542Z,0.50
2018-12-29T07:48:22.352Z,0.60
2018-12-29T07:51:03.060Z,0.70
2018-12-29T07:53:44.633Z,0.60
2018-12-29T07:56:25.561Z,0.60
2018-12-29T07:59:06.538Z,0.60
2018-12-29T08:01:47.320Z,0.60
2018-12-29T08:04:28.851Z,0.60
2018-12-29T08:07:10.379Z,0.60
2018-12-29T08:09:52.019Z,0.70
2018-12-29T08:12:32.745Z,0.70
2018-12-29T08:15:14.243Z,0.70
2018-12-29T08:17:55.737Z,0.80
2018-12-29T08:20:37.040Z,0.80
2018-12-29T08:23:18.512Z,0.70
2018-12-29T08:25:59.249Z,0.70
2018-12-29T08:28:39.993Z,0.70
2018-12-29T08:31:09.547Z,0.80
2018-12-29T08:39:41.331Z,0.90
2018-12-29T08:42:22.948Z,1.00
2018-12-29T08:45:03.614Z,1.00
2018-12-29T08:47:45.036Z,1.00
2018-12-29T08:50:14.624Z,1.00
2018-12-29T08:53:03.300Z,1.00
2018-12-29T08:55:44.522Z,1.00
2018-12-29T08:58:25.492Z,1.00
2018-12-29T09:01:06.318Z,1.00
2018-12-29T09:03:47.473Z,1.10
2018-12-29T09:06:29.051Z,1.00
2018-12-29T09:09:09.764Z,1.00
2018-12-29T09:11:50.566Z,1.10
2018-12-29T09:14:20.150Z,1.10
2018-12-29T09:17:12.299Z,1.20
2018-12-29T09:19:59.076Z,1.20
2018-12-29T09:22:40.148Z,1.20
2018-12-29T09:25:21.834Z,1.30
2018-12-29T09:28:03.389Z,1.20
2018-12-29T09:30:44.930Z,1.30
2018-12-29T09:33:26.427Z,1.30
2018-12-29T09:36:07.524Z,1.30
2018-12-29T09:38:48.702Z,1.40
2018-12-29T09:41:29.425Z,1.40
2018-12-29T09:44:10.947Z,1.40
2018-12-29T09:46:52.411Z,1.30
2018-12-29T09:49:33.950Z,1.40
2018-12-29T09:52:15.470Z,1.40
2018-12-29T09:54:57.181Z,1.50
2018-12-29T09:57:38.753Z,1.50
2018-12-29T10:00:20.437Z,1.50
2018-12-29T10:03:02.098Z,1.60
2018-12-29T10:05:43.520Z,1.60
2018-12-29T10:08:25.093Z,1.50
2018-12-29T10:10:54.674Z,1.60
2018-12-29T10:13:43.445Z,1.60
2018-12-29T10:19:22.429Z,1.70
2018-12-29T10:25:12.762Z,1.70
2018-12-29T10:27:54.249Z,1.70
2018-12-29T10:30:35.755Z,1.70
2018-12-29T10:33:17.324Z,1.70
2018-12-29T10:35:58.999Z,1.80
2018-12-29T10:38:39.851Z,1.80
2018-12-29T10:41:20.575Z,1.70
2018-12-29T10:44:02.202Z,1.90
2018-12-29T10:46:42.933Z,1.90
2018-12-29T10:49:23.657Z,1.90
2018-12-29T10:52:05.201Z,2.00
2018-12-29T10:54:46.780Z,2.00
2018-12-29T10:57:26.512Z,2.00
2018-12-29T11:00:07.744Z,1.90
2018-12-29T11:02:49.282Z,1.80
2018-12-29T11:05:30.163Z,2.00
2018-12-29T11:08:11.474Z,2.00
2018-12-29T11:10:52.987Z,1.90
2018-12-29T11:13:33.744Z,1.90
2018-12-29T11:16:14.576Z,2.00
2018-12-29T11:18:55.890Z,1.90
2018-12-29T11:21:37.622Z,1.90
2018-12-29T11:24:18.420Z,1.80
2018-12-29T11:26:59.650Z,1.80
2018-12-29T11:29:41.141Z,1.90
2018-12-29T11:32:22.888Z,1.80
2018-12-29T11:35:04.394Z,1.80
2018-12-29T11:37:45.234Z,1.80
2018-12-29T11:40:26.928Z,1.70
2018-12-29T11:43:08.407Z,1.80
2018-12-29T11:45:49.248Z,1.90
2018-12-29T11:48:30.854Z,1.90
2018-12-29T11:51:12.460Z,2.00
2018-12-29T11:53:54.070Z,2.00
2018-12-29T11:56:34.792Z,2.10
2018-12-29T11:59:16.207Z,2.10
2018-12-29T12:01:57.796Z,2.00
2018-12-29T12:04:39.335Z,2.00
2018-12-29T12:07:20.965Z,1.90
2018-12-29T12:10:02.665Z,1.90
2018-12-29T12:12:43.518Z,1.80
2018-12-29T12:15:24.935Z,1.80
2018-12-29T12:18:06.460Z,1.80
2018-12-29T12:20:36.087Z,1.90
2018-12-29T12:26:26.327Z,1.90
2018-12-29T12:29:07.590Z,1.70
2018-12-29T12:31:49.351Z,1.80
2018-12-29T12:34:30.201Z,1.80
2018-12-29T12:37:11.528Z,1.80
2018-12-29T12:39:53.041Z,1.70
2018-12-29T12:42:33.954Z,1.70
2018-12-29T12:45:03.561Z,1.70
2018-12-29T12:53:39.650Z,1.70
2018-12-29T12:56:21.128Z,1.70
2018-12-29T12:58:50.940Z,1.70
2018-12-29T13:07:23.183Z,1.50
2018-12-29T13:10:04.730Z,1.60
2018-12-29T13:12:46.397Z,1.60
2018-12-29T13:15:27.199Z,1.50
2018-12-29T13:18:12.848Z,1.50
2018-12-29T13:20:39.417Z,1.50
2018-12-29T13:23:42.070Z,1.60
2018-12-29T13:29:20.500Z,1.50
2018-12-29T13:32:01.835Z,1.50
2018-12-29T13:34:43.504Z,1.50
2018-12-29T13:37:24.898Z,1.50
